Time;durP1;ratioP1;P1;durP2;ratioP2;P2;SDS_P1;SDS_P2;PMS_P1;PMS_P2;Temp;Humidity;BMP_temperature;BMP_pressure;BME280_temperature;BME280_humidity;BME280_pressure;Samples;Min_cycle;Max_cycle;Signal;HPM_P1;HPM_P2
2023/05/16 00:00:16;;;;;;;23.83;11.90;;;13.30;1.00;;;;;;4970771;28;20821;-55
2023/05/16 00:02:41;;;;;;;21.55;10.73;;;13.30;1.00;;;;;;4971426;28;20400;-55
2023/05/16 00:05:09;;;;;;;24.67;12.30;;;13.20;1.00;;;;;;4970461;28;20419;-54
2023/05/16 00:07:35;;;;;;;21.33;11.23;;;13.20;1.00;;;;;;4971272;28;20515;-54
2023/05/16 00:10:01;;;;;;;20.20;10.80;;;13.10;1.00;;;;;;4970245;28;20527;-54
2023/05/16 00:12:28;;;;;;;22.45;12.10;;;13.20;1.00;;;;;;4970974;28;20420;-54
2023/05/16 00:14:54;;;;;;;22.38;12.05;;;13.20;1.00;;;;;;4972911;28;20593;-54
2023/05/16 00:17:20;;;;;;;21.63;11.35;;;13.30;1.00;;;;;;4971113;28;20897;-54
2023/05/16 00:19:47;;;;;;;24.08;11.27;;;13.30;1.00;;;;;;4971359;28;20431;-54
2023/05/16 00:22:14;;;;;;;20.33;11.00;;;13.30;1.00;;;;;;4970817;28;20424;-54
2023/05/16 00:24:40;;;;;;;20.55;11.60;;;13.30;1.00;;;;;;4970848;28;20415;-55
2023/05/16 00:27:06;;;;;;;22.05;11.07;;;13.40;1.00;;;;;;4970802;28;20832;-55
2023/05/16 00:29:33;;;;;;;23.05;12.27;;;13.40;1.00;;;;;;4970999;28;21037;-54
2023/05/16 00:31:59;;;;;;;23.30;12.32;;;13.40;1.00;;;;;;4969170;28;20419;-54
2023/05/16 00:34:25;;;;;;;21.70;12.70;;;13.30;1.00;;;;;;4961497;28;20414;-54
2023/05/16 00:36:52;;;;;;;22.95;11.38;;;13.00;1.00;;;;;;4968643;28;20415;-54
2023/05/16 00:39:17;;;;;;;22.20;12.18;;;13.20;1.00;;;;;;4968311;28;20404;-54
2023/05/16 00:41:44;;;;;;;26.23;12.70;;;13.10;1.00;;;;;;4967978;28;20720;-54
2023/05/16 00:44:10;;;;;;;26.83;13.50;;;13.00;1.00;;;;;;4966542;28;20420;-54
2023/05/16 00:46:35;;;;;;;27.60;13.40;;;13.00;1.00;;;;;;4951973;28;21208;-54
2023/05/16 00:49:01;;;;;;;24.50;12.80;;;12.90;1.00;;;;;;4952838;29;20390;-54
2023/05/16 00:51:27;;;;;;;25.08;12.57;;;12.80;1.00;;;;;;4952210;29;20513;-55
2023/05/16 00:53:54;;;;;;;24.70;13.60;;;12.80;1.00;;;;;;4953135;29;20527;-54
2023/05/16 00:56:20;;;;;;;26.98;12.77;;;12.80;1.00;;;;;;4951922;29;20838;-54
2023/05/16 00:58:46;;;;;;;27.40;14.63;;;12.70;1.00;;;;;;4952958;29;20928;-54
2023/05/16 01:01:13;;;;;;;26.58;14.38;;;12.60;1.00;;;;;;4953161;29;20401;-54
2023/05/16 01:03:39;;;;;;;27.98;13.50;;;12.60;1.00;;;;;;4951258;29;20397;-54
2023/05/16 01:06:05;;;;;;;28.20;14.85;;;12.50;1.00;;;;;;4952714;29;20411;-54
2023/05/16 01:08:31;;;;;;;26.27;13.43;;;12.50;1.00;;;;;;4951708;29;20395;-54
2023/05/16 01:11:03;;;;;;;25.97;13.13;;;12.50;1.00;;;;;;4955697;28;20449;-54
2023/05/16 01:13:55;;;;;;;27.15;13.65;;;12.50;1.00;;;;;;4951011;29;20497;-54
2023/05/16 01:16:29;;;;;;;28.00;14.07;;;12.50;1.00;;;;;;4952804;28;21006;-54
2023/05/16 01:19:31;;;;;;;28.83;15.77;;;12.40;1.00;;;;;;4960476;28;20501;-54
2023/05/16 01:22:26;;;;;;;28.67;14.75;;;12.30;1.00;;;;;;4945209;28;20421;-54
2023/05/16 01:25:17;;;;;;;29.70;14.63;;;12.20;1.00;;;;;;4963588;28;20793;-54
2023/05/16 01:27:44;;;;;;;27.98;14.80;;;12.20;1.00;;;;;;4966643;28;20425;-54
2023/05/16 01:30:18;;;;;;;28.08;14.50;;;12.20;1.00;;;;;;4948359;28;20426;-54
2023/05/16 01:32:44;;;;;;;28.80;14.40;;;12.10;1.00;;;;;;4949407;29;20433;-54
2023/05/16 01:35:14;;;;;;;30.35;15.95;;;12.20;1.00;;;;;;4951222;29;20390;-54
2023/05/16 01:37:59;;;;;;;31.40;16.52;;;12.10;1.00;;;;;;4950956;29;20406;-54
2023/05/16 01:40:33;;;;;;;31.10;16.10;;;12.00;1.00;;;;;;4946882;29;20557;-54
2023/05/16 01:43:02;;;;;;;31.75;15.73;;;12.00;1.00;;;;;;4950256;29;20500;-54
2023/05/16 01:45:32;;;;;;;29.88;15.52;;;12.00;1.00;;;;;;4949741;29;20438;-54
2023/05/16 01:48:06;;;;;;;31.02;16.05;;;11.90;1.00;;;;;;4949194;29;20413;-54
2023/05/16 01:50:35;;;;;;;35.17;15.93;;;11.90;1.00;;;;;;4948696;29;20422;-54
2023/05/16 01:53:15;;;;;;;34.72;18.02;;;11.90;1.00;;;;;;4950649;29;20426;-54
2023/05/16 01:55:48;;;;;;;34.03;16.23;;;11.90;1.00;;;;;;4948889;29;20749;-54
2023/05/16 01:58:15;;;;;;;35.42;15.80;;;12.00;1.00;;;;;;4949752;29;20444;-55
2023/05/16 02:00:41;;;;;;;34.35;16.30;;;12.00;1.00;;;;;;4948614;28;20410;-54
2023/05/16 02:03:07;;;;;;;35.97;17.10;;;12.00;1.00;;;;;;4951109;29;20418;-54
2023/05/16 02:05:33;;;;;;;35.85;16.38;;;12.10;1.00;;;;;;4948820;29;20557;-54
2023/05/16 02:07:59;;;;;;;32.47;15.73;;;12.00;1.00;;;;;;4950343;29;20950;-54
2023/05/16 02:10:26;;;;;;;35.43;16.67;;;12.00;1.00;;;;;;4949047;29;20438;-54
2023/05/16 02:12:51;;;;;;;37.47;17.70;;;11.90;1.00;;;;;;4933017;29;20900;-54
2023/05/16 02:15:17;;;;;;;37.67;18.40;;;11.80;1.00;;;;;;4948742;29;20453;-54
2023/05/16 02:17:43;;;;;;;36.15;18.80;;;11.80;1.00;;;;;;4947370;29;21034;-54
2023/05/16 02:20:10;;;;;;;37.93;18.43;;;11.70;1.00;;;;;;4949874;29;21285;-54
2023/05/16 02:22:38;;;;;;;38.03;17.25;;;11.60;1.00;;;;;;4948533;29;20425;-54
2023/05/16 02:25:04;;;;;;;37.13;17.47;;;11.60;1.00;;;;;;4946200;29;20886;-54
2023/05/16 02:27:29;;;;;;;37.97;17.77;;;11.60;1.00;;;;;;4950141;28;20922;-54
2023/05/16 02:29:55;;;;;;;40.42;19.17;;;11.70;1.00;;;;;;4961877;28;20419;-54
2023/05/16 02:32:20;;;;;;;44.60;19.67;;;11.70;1.00;;;;;;4972535;28;20775;-54
2023/05/16 02:34:46;;;;;;;47.03;19.13;;;11.80;1.00;;;;;;4972624;28;20403;-54
2023/05/16 02:37:12;;;;;;;46.67;19.73;;;11.80;1.00;;;;;;4973824;28;20439;-54
2023/05/16 02:39:37;;;;;;;40.77;19.23;;;11.80;1.00;;;;;;4972753;28;20434;-54
2023/05/16 02:42:04;;;;;;;43.73;20.67;;;11.90;1.00;;;;;;4972840;28;20463;-54
2023/05/16 02:44:30;;;;;;;41.38;17.27;;;11.90;1.00;;;;;;4970887;28;20993;-54
2023/05/16 02:46:56;;;;;;;37.10;17.83;;;11.90;1.00;;;;;;4974673;28;20412;-54
2023/05/16 02:49:21;;;;;;;37.30;18.07;;;11.90;1.00;;;;;;4973799;28;20415;-54
2023/05/16 02:51:47;;;;;;;40.38;17.85;;;11.90;1.00;;;;;;4974465;28;20498;-54
2023/05/16 02:54:13;;;;;;;38.27;18.67;;;11.90;1.00;;;;;;4974428;28;20734;-54
2023/05/16 02:56:38;;;;;;;44.10;19.48;;;11.80;1.00;;;;;;4973689;28;20409;-54
2023/05/16 02:59:04;;;;;;;49.90;20.63;;;11.80;1.00;;;;;;4974719;28;20407;-54
2023/05/16 03:01:30;;;;;;;41.60;19.20;;;11.90;1.00;;;;;;4973365;28;20392;-54
2023/05/16 03:03:56;;;;;;;44.65;19.52;;;11.80;1.00;;;;;;4973898;28;20391;-54
2023/05/16 03:06:21;;;;;;;47.08;20.88;;;11.70;1.00;;;;;;4973471;28;20877;-54
2023/05/16 03:08:47;;;;;;;49.60;20.23;;;11.70;1.00;;;;;;4974100;28;20442;-54
2023/05/16 03:11:13;;;;;;;49.43;22.33;;;11.70;1.00;;;;;;4973897;28;20478;-54
2023/05/16 03:13:41;;;;;;;47.80;21.08;;;11.80;1.00;;;;;;4973270;28;20389;-54
2023/05/16 03:16:07;;;;;;;48.30;21.02;;;11.80;1.00;;;;;;4973756;28;20830;-54
2023/05/16 03:18:32;;;;;;;50.70;21.27;;;11.90;1.00;;;;;;4972985;28;20483;-54
2023/05/16 03:20:58;;;;;;;52.42;22.33;;;11.90;1.00;;;;;;4973904;28;20399;-54
2023/05/16 03:23:24;;;;;;;48.13;20.93;;;12.00;1.00;;;;;;4972901;28;20435;-54
2023/05/16 03:25:50;;;;;;;45.28;20.30;;;12.00;1.00;;;;;;4973422;28;20432;-55
2023/05/16 03:28:19;;;;;;;47.90;22.77;;;12.10;1.00;;;;;;4973643;28;20432;-54
2023/05/16 03:30:45;;;;;;;48.80;21.80;;;12.00;1.00;;;;;;4968948;28;20511;-54
2023/05/16 03:33:10;;;;;;;46.27;20.63;;;12.00;1.00;;;;;;4971693;28;20491;-54
2023/05/16 03:35:36;;;;;;;53.13;21.52;;;12.00;1.00;;;;;;4972281;28;21063;-54
2023/05/16 03:38:02;;;;;;;46.73;19.77;;;11.90;1.00;;;;;;4971647;28;20495;-54
2023/05/16 03:40:28;;;;;;;51.97;22.42;;;12.00;1.00;;;;;;4968844;28;20773;-54
2023/05/16 03:42:54;;;;;;;53.63;21.40;;;12.00;1.00;;;;;;4971770;28;20412;-54
2023/05/16 03:45:19;;;;;;;49.75;22.08;;;12.00;1.00;;;;;;4971000;28;20408;-54
2023/05/16 03:47:45;;;;;;;56.30;23.63;;;12.00;1.00;;;;;;4947411;28;20482;-54
2023/05/16 03:50:11;;;;;;;61.75;23.73;;;12.00;1.00;;;;;;4967193;28;20434;-54
2023/05/16 03:52:37;;;;;;;55.27;22.60;;;12.00;1.00;;;;;;4969374;28;20474;-54
2023/05/16 03:55:03;;;;;;;47.92;21.75;;;11.90;1.00;;;;;;4972140;28;20415;-54
2023/05/16 03:57:32;;;;;;;53.95;20.92;;;12.00;1.00;;;;;;4970743;28;20419;-54
2023/05/16 03:59:58;;;;;;;53.42;22.38;;;12.00;1.00;;;;;;4970541;28;20427;-54
2023/05/16 04:02:23;;;;;;;49.70;22.20;;;12.00;1.00;;;;;;4970734;28;20424;-54
2023/05/16 04:04:49;;;;;;;51.88;22.98;;;12.00;1.00;;;;;;4971730;28;20408;-54
2023/05/16 04:07:15;;;;;;;52.63;22.60;;;12.00;1.00;;;;;;4963769;28;20404;-54
2023/05/16 04:09:40;;;;;;;48.05;21.60;;;12.00;1.00;;;;;;4962671;28;20429;-57
2023/05/16 04:12:06;;;;;;;54.30;22.70;;;11.90;1.00;;;;;;4972025;28;20477;-57
2023/05/16 04:14:33;;;;;;;48.58;22.88;;;12.00;1.00;;;;;;4970864;28;20793;-57
2023/05/16 04:16:59;;;;;;;54.85;21.52;;;12.10;1.00;;;;;;4969768;28;20957;-58
2023/05/16 04:19:24;;;;;;;56.15;22.42;;;12.10;1.00;;;;;;4968750;28;20492;-58
2023/05/16 04:21:51;;;;;;;62.20;22.80;;;12.10;1.00;;;;;;4936115;29;20485;-57
2023/05/16 04:24:17;;;;;;;54.45;22.95;;;12.10;1.00;;;;;;4971586;28;20490;-57
2023/05/16 04:26:42;;;;;;;51.63;21.27;;;12.40;1.00;;;;;;4970171;28;20894;-57
2023/05/16 04:29:08;;;;;;;56.63;23.67;;;12.30;1.00;;;;;;4968627;28;20432;-57
2023/05/16 04:31:33;;;;;;;57.92;22.00;;;12.40;1.00;;;;;;4967481;28;20923;-57
2023/05/16 04:34:00;;;;;;;54.63;23.37;;;12.40;1.00;;;;;;4972438;28;20399;-57
2023/05/16 04:36:28;;;;;;;51.47;21.00;;;12.50;1.00;;;;;;4970676;28;20427;-57
2023/05/16 04:38:55;;;;;;;54.88;21.02;;;12.50;1.00;;;;;;4970384;28;20404;-57
2023/05/16 04:41:21;;;;;;;53.28;21.73;;;12.50;1.00;;;;;;4964073;28;20490;-57
2023/05/16 04:43:47;;;;;;;53.83;21.80;;;12.60;1.00;;;;;;4966303;28;20388;-57
2023/05/16 04:46:14;;;;;;;51.20;24.77;;;12.70;1.00;;;;;;4970226;28;20720;-59
2023/05/16 04:48:40;;;;;;;57.20;22.67;;;12.70;1.00;;;;;;4969218;28;20923;-60
2023/05/16 04:51:05;;;;;;;51.90;23.27;;;12.60;1.00;;;;;;4964901;28;20507;-59
2023/05/16 04:53:31;;;;;;;55.35;22.30;;;12.70;1.00;;;;;;4971569;28;20388;-59
2023/05/16 04:55:57;;;;;;;47.43;21.87;;;12.90;1.00;;;;;;4971673;28;20428;-59
2023/05/16 04:58:23;;;;;;;51.35;22.48;;;12.70;1.00;;;;;;4970384;28;20408;-59
2023/05/16 05:00:50;;;;;;;45.30;20.95;;;12.90;1.00;;;;;;4971268;28;20954;-59
2023/05/16 05:03:16;;;;;;;59.22;22.60;;;12.80;1.00;;;;;;4971977;28;20424;-58
2023/05/16 05:05:42;;;;;;;48.17;20.47;;;12.80;1.00;;;;;;4969273;28;20416;-58
2023/05/16 05:08:08;;;;;;;48.88;21.55;;;12.90;1.00;;;;;;4969059;28;20466;-57
2023/05/16 05:10:34;;;;;;;49.83;21.30;;;12.80;1.00;;;;;;4967470;28;20411;-57
2023/05/16 05:13:00;;;;;;;51.40;21.77;;;12.90;1.00;;;;;;4971594;28;20416;-57
2023/05/16 05:15:26;;;;;;;45.33;21.08;;;13.00;1.00;;;;;;4971009;28;20467;-55
2023/05/16 05:17:51;;;;;;;51.23;20.60;;;13.20;1.00;;;;;;4971610;28;20389;-55
2023/05/16 05:20:17;;;;;;;48.03;20.17;;;13.10;1.00;;;;;;4971396;28;20392;-55
2023/05/16 05:22:43;;;;;;;45.70;20.80;;;13.00;1.00;;;;;;4971802;28;20392;-55
2023/05/16 05:25:09;;;;;;;47.53;22.23;;;13.10;1.00;;;;;;4969785;28;20423;-54
2023/05/16 05:27:35;;;;;;;47.63;20.98;;;13.00;1.00;;;;;;4970363;28;20415;-55
2023/05/16 05:30:01;;;;;;;52.27;21.60;;;13.00;1.00;;;;;;4971567;28;20424;-55
2023/05/16 05:32:27;;;;;;;47.17;20.30;;;13.00;1.00;;;;;;4959217;28;20416;-56
2023/05/16 05:34:52;;;;;;;45.97;20.65;;;13.00;1.00;;;;;;4969749;28;20790;-55
2023/05/16 05:37:18;;;;;;;49.60;21.43;;;12.80;1.00;;;;;;4969405;28;20424;-55
2023/05/16 05:39:44;;;;;;;50.23;22.17;;;12.90;1.00;;;;;;4970157;28;20404;-55
2023/05/16 05:42:10;;;;;;;50.17;21.55;;;13.00;1.00;;;;;;4967490;28;20507;-56
2023/05/16 05:44:36;;;;;;;50.60;22.02;;;13.00;1.00;;;;;;4966926;28;20500;-55
2023/05/16 05:47:02;;;;;;;48.40;21.10;;;13.00;1.00;;;;;;4970488;28;20408;-55
2023/05/16 05:49:28;;;;;;;51.33;21.52;;;13.00;1.00;;;;;;4967443;28;20785;-55
2023/05/16 05:51:54;;;;;;;45.47;20.73;;;13.10;1.00;;;;;;4961587;28;20412;-55
2023/05/16 05:54:20;;;;;;;44.53;19.70;;;13.30;1.00;;;;;;4970747;28;20393;-55
2023/05/16 05:56:46;;;;;;;53.00;22.93;;;14.20;1.00;;;;;;4967014;28;20770;-55
2023/05/16 05:59:11;;;;;;;44.17;20.13;;;13.60;1.00;;;;;;4969254;28;20416;-55
2023/05/16 06:01:38;;;;;;;45.75;20.42;;;13.50;1.00;;;;;;4949472;28;20953;-55
2023/05/16 06:04:04;;;;;;;41.38;18.17;;;13.60;1.00;;;;;;4967029;28;20412;-55
2023/05/16 06:06:30;;;;;;;42.20;19.67;;;13.80;1.00;;;;;;4958443;28;20526;-55
2023/05/16 06:08:56;;;;;;;41.65;18.80;;;13.70;1.00;;;;;;4968488;28;20416;-55
2023/05/16 06:11:24;;;;;;;39.70;19.00;;;13.80;1.00;;;;;;4950960;29;20416;-55
2023/05/16 06:13:50;;;;;;;36.00;16.60;;;13.80;1.00;;;;;;4956640;28;20805;-55
2023/05/16 06:16:15;;;;;;;39.50;17.73;;;13.90;99.90;;;;;;4970954;28;20392;-55
2023/05/16 06:18:41;;;;;;;40.50;18.77;;;13.90;99.90;;;;;;4970099;28;20854;-55
2023/05/16 06:21:06;;;;;;;38.90;18.20;;;14.00;99.90;;;;;;4971131;28;20535;-55
2023/05/16 06:23:32;;;;;;;36.07;17.10;;;14.10;99.90;;;;;;4955217;28;20390;-55
2023/05/16 06:25:58;;;;;;;38.90;17.83;;;14.20;99.90;;;;;;4951526;29;20386;-55
2023/05/16 06:28:24;;;;;;;34.08;16.75;;;14.20;99.90;;;;;;4950992;29;20448;-55
2023/05/16 06:30:50;;;;;;;31.90;15.13;;;14.40;93.80;;;;;;4951523;29;20856;-54
2023/05/16 06:33:17;;;;;;;32.90;14.82;;;14.30;1.00;;;;;;4951727;29;20394;-55
2023/05/16 06:35:42;;;;;;;33.17;15.10;;;14.30;77.20;;;;;;4950937;29;20741;-55
2023/05/16 06:38:08;;;;;;;30.67;14.60;;;14.40;1.00;;;;;;4951816;29;20911;-55
2023/05/16 06:40:33;;;;;;;29.27;14.10;;;14.50;1.00;;;;;;4964991;28;20396;-55
2023/05/16 06:42:59;;;;;;;29.83;14.10;;;14.50;1.00;;;;;;4971178;28;20389;-55
2023/05/16 06:45:25;;;;;;;28.50;12.70;;;14.70;99.90;;;;;;4970317;28;20470;-55
2023/05/16 06:47:52;;;;;;;28.05;13.68;;;14.80;1.00;;;;;;4970335;28;20480;-55
2023/05/16 06:50:17;;;;;;;26.83;12.20;;;14.70;1.00;;;;;;4970878;28;20435;-55
2023/05/16 06:52:43;;;;;;;26.43;12.93;;;14.70;1.00;;;;;;4969861;28;20992;-55
2023/05/16 06:55:09;;;;;;;24.73;12.52;;;14.40;1.00;;;;;;4970841;28;20416;-55
2023/05/16 06:57:34;;;;;;;20.30;10.45;;;14.20;99.90;;;;;;4970430;28;20395;-55
2023/05/16 07:00:00;;;;;;;21.73;10.73;;;14.30;99.90;;;;;;4970757;28;20396;-55
2023/05/16 07:02:26;;;;;;;21.73;10.43;;;14.50;99.90;;;;;;4969624;28;20392;-55
2023/05/16 07:04:51;;;;;;;19.40;9.63;;;14.40;1.00;;;;;;4970667;28;20392;-55
2023/05/16 07:07:17;;;;;;;19.95;9.80;;;14.20;1.00;;;;;;4970630;28;20427;-55
2023/05/16 07:09:43;;;;;;;17.52;8.45;;;14.10;99.90;;;;;;4969812;28;20414;-55
2023/05/16 07:12:08;;;;;;;15.93;8.30;;;14.10;99.90;;;;;;4970611;28;20914;-55
2023/05/16 07:14:34;;;;;;;17.20;8.40;;;14.00;99.90;;;;;;4958994;28;20402;-55
2023/05/16 07:17:00;;;;;;;21.77;8.70;;;14.10;1.00;;;;;;4954454;29;20401;-54
2023/05/16 07:19:25;;;;;;;17.53;8.50;;;14.10;99.90;;;;;;4954066;29;20401;-55
2023/05/16 07:21:51;;;;;;;19.05;7.72;;;13.80;99.90;;;;;;4954867;29;20401;-55
2023/05/16 07:24:16;;;;;;;17.43;8.30;;;13.70;1.00;;;;;;4955070;29;20405;-55
2023/05/16 07:26:42;;;;;;;16.67;8.60;;;13.60;1.00;;;;;;4953707;29;20440;-55
2023/05/16 07:29:08;;;;;;;17.20;8.98;;;13.60;99.90;;;;;;4954300;29;20537;-55
2023/05/16 07:31:35;;;;;;;19.10;8.43;;;13.70;1.00;;;;;;4953583;29;20496;-55
2023/05/16 07:34:00;;;;;;;16.33;8.17;;;13.50;99.90;;;;;;4954153;29;20402;-55
2023/05/16 07:36:26;;;;;;;16.65;8.10;;;13.60;99.90;;;;;;4953706;29;20485;-55
2023/05/16 07:38:52;;;;;;;17.97;8.67;;;13.50;1.00;;;;;;4954868;29;20394;-55
2023/05/16 07:41:18;;;;;;;18.00;8.82;;;13.60;1.00;;;;;;4954619;29;20398;-55
2023/05/16 07:43:44;;;;;;;18.30;8.80;;;13.60;99.90;;;;;;4953381;29;20386;-55
2023/05/16 07:46:10;;;;;;;17.13;8.70;;;13.60;39.40;;;;;;4954560;29;20460;-55
2023/05/16 07:48:36;;;;;;;18.80;8.43;;;13.60;23.80;;;;;;4953523;29;20855;-55
2023/05/16 07:51:01;;;;;;;17.13;8.00;;;13.90;1.00;;;;;;4954298;29;20394;-55
2023/05/16 07:53:27;;;;;;;16.00;8.47;;;14.00;1.00;;;;;;4953662;29;20480;-55
2023/05/16 07:55:53;;;;;;;17.33;8.60;;;14.20;1.00;;;;;;4954190;29;20390;-55
2023/05/16 07:58:18;;;;;;;19.95;8.77;;;14.30;99.90;;;;;;4953610;29;20416;-55
2023/05/16 08:00:44;;;;;;;20.13;9.30;;;14.40;1.00;;;;;;4953321;29;20407;-56
2023/05/16 08:03:11;;;;;;;20.08;9.00;;;14.20;99.90;;;;;;4954099;29;20880;-55
2023/05/16 08:05:38;;;;;;;19.60;9.70;;;14.10;1.00;;;;;;4952975;29;20417;-55
2023/05/16 08:08:03;;;;;;;19.75;9.40;;;14.20;21.80;;;;;;4954248;29;20382;-55
2023/05/16 08:10:29;;;;;;;20.05;9.30;;;14.00;1.00;;;;;;4953337;29;20923;-55
2023/05/16 08:12:55;;;;;;;19.77;8.80;;;13.70;99.90;;;;;;4953931;28;20424;-55
2023/05/16 08:15:21;;;;;;;20.02;9.50;;;13.60;1.00;;;;;;4972840;28;20458;-55
2023/05/16 08:17:46;;;;;;;17.05;8.27;;;12.80;1.00;;;;;;4972356;28;20399;-55
2023/05/16 08:20:12;;;;;;;19.50;9.47;;;13.50;1.00;;;;;;4973198;28;20392;-55
2023/05/16 08:22:38;;;;;;;19.10;9.53;;;13.40;1.00;;;;;;4972098;28;20435;-55
2023/05/16 08:25:04;;;;;;;18.70;9.82;;;13.30;31.90;;;;;;4972251;28;20388;-55
2023/05/16 08:27:30;;;;;;;20.05;10.38;;;13.40;1.00;;;;;;4971960;28;20459;-55
2023/05/16 08:29:56;;;;;;;19.80;9.40;;;13.60;1.00;;;;;;4973205;28;20444;-55
2023/05/16 08:32:22;;;;;;;21.73;10.30;;;13.50;1.00;;;;;;4972348;28;20412;-55
2023/05/16 08:34:47;;;;;;;20.10;10.48;;;13.60;1.00;;;;;;4972725;28;20396;-55
2023/05/16 08:37:13;;;;;;;21.60;10.13;;;13.60;38.60;;;;;;4972853;28;20427;-55
2023/05/16 08:39:39;;;;;;;25.07;12.23;;;13.40;99.90;;;;;;4954764;28;20433;-55
2023/05/16 08:42:05;;;;;;;23.80;11.32;;;13.60;99.90;;;;;;4972513;28;20851;-55
2023/05/16 08:44:33;;;;;;;26.83;11.70;;;13.80;99.90;;;;;;4972350;28;20838;-55
2023/05/16 08:47:08;;;;;;;22.70;11.30;;;13.90;1.00;;;;;;4972460;28;20388;-55
2023/05/16 08:49:35;;;;;;;26.23;13.47;;;14.00;1.00;;;;;;4971957;28;20985;-55
2023/05/16 08:52:03;;;;;;;28.38;13.95;;;14.00;46.30;;;;;;4972817;28;20420;-55
2023/05/16 08:54:29;;;;;;;26.75;12.40;;;14.30;1.00;;;;;;4971691;28;20411;-55
2023/05/16 08:56:56;;;;;;;26.92;12.40;;;14.50;99.90;;;;;;4972363;28;20393;-55
2023/05/16 08:59:23;;;;;;;27.73;12.27;;;14.50;99.90;;;;;;4972398;28;20399;-55
2023/05/16 09:01:49;;;;;;;27.10;12.95;;;14.40;99.90;;;;;;4972160;28;21005;-55
2023/05/16 09:04:15;;;;;;;28.35;13.23;;;14.40;99.90;;;;;;4972156;28;20475;-55
2023/05/16 09:06:40;;;;;;;30.70;14.07;;;14.50;99.90;;;;;;4971390;28;20423;-55
2023/05/16 09:09:08;;;;;;;26.10;12.38;;;14.50;62.30;;;;;;4971835;28;20483;-55
2023/05/16 09:11:34;;;;;;;27.00;12.55;;;14.40;99.90;;;;;;4971703;28;20471;-55
2023/05/16 09:14:00;;;;;;;23.17;11.40;;;14.30;1.00;;;;;;4963501;28;20430;-55
2023/05/16 09:16:25;;;;;;;30.93;13.77;;;14.40;99.90;;;;;;4951993;29;20484;-55
2023/05/16 09:18:57;;;;;;;25.80;13.25;;;14.60;69.60;;;;;;4952435;29;20386;-55
2023/05/16 09:21:32;;;;;;;25.00;11.65;;;14.50;1.00;;;;;;4952219;29;20437;-55
2023/05/16 09:24:05;;;;;;;22.33;10.52;;;14.40;99.90;;;;;;4952873;29;20393;-55
2023/05/16 09:26:36;;;;;;;24.42;11.07;;;14.30;20.20;;;;;;4951829;29;20409;-55
2023/05/16 09:29:09;;;;;;;24.40;11.80;;;14.40;1.00;;;;;;4952547;29;20472;-55
2023/05/16 09:31:37;;;;;;;24.15;12.20;;;14.30;1.00;;;;;;4952013;29;20452;-55
2023/05/16 09:34:06;;;;;;;28.27;12.00;;;14.40;1.00;;;;;;4952317;29;20871;-55
2023/05/16 09:36:32;;;;;;;26.57;11.97;;;14.60;99.90;;;;;;4951930;28;20402;-55
2023/05/16 09:38:58;;;;;;;24.52;11.07;;;14.60;1.00;;;;;;4971180;28;20739;-54
2023/05/16 09:41:23;;;;;;;22.80;11.20;;;14.50;99.90;;;;;;4971181;28;20387;-55
2023/05/16 09:43:49;;;;;;;22.13;10.30;;;14.60;1.00;;;;;;4971102;28;20396;-55
2023/05/16 09:46:15;;;;;;;22.13;10.90;;;14.70;99.90;;;;;;4971349;28;20395;-55
2023/05/16 09:48:46;;;;;;;22.50;10.67;;;14.90;99.90;;;;;;4970604;28;20395;-55
2023/05/16 09:51:12;;;;;;;24.33;11.00;;;14.90;16.50;;;;;;4971514;28;20416;-55
2023/05/16 09:53:40;;;;;;;24.75;10.70;;;15.10;1.00;;;;;;4970523;28;20392;-55
2023/05/16 09:56:11;;;;;;;21.63;10.37;;;15.30;1.00;;;;;;4971382;28;20858;-55
2023/05/16 09:58:39;;;;;;;20.05;9.93;;;15.70;99.90;;;;;;4970209;28;20388;-55
2023/05/16 10:01:07;;;;;;;21.00;9.48;;;16.00;38.00;;;;;;4971347;28;20442;-55
2023/05/16 10:03:35;;;;;;;24.15;10.23;;;15.90;1.00;;;;;;4970668;28;20436;-55
2023/05/16 10:06:01;;;;;;;23.05;9.27;;;15.90;1.00;;;;;;4971575;28;20380;-55
2023/05/16 10:08:30;;;;;;;19.55;8.93;;;15.80;1.00;;;;;;4970369;28;20728;-56
2023/05/16 10:10:55;;;;;;;21.75;10.52;;;15.90;1.00;;;;;;4971399;28;20442;-55
2023/05/16 10:13:32;;;;;;;19.77;9.15;;;15.90;1.00;;;;;;4970833;28;20787;-55
2023/05/16 10:16:00;;;;;;;21.80;9.30;;;16.20;1.00;;;;;;4970759;28;20735;-55
2023/05/16 10:18:30;;;;;;;18.90;9.00;;;16.10;99.90;;;;;;4970335;28;20392;-55
2023/05/16 10:21:05;;;;;;;21.42;8.95;;;15.90;1.00;;;;;;4971130;28;20526;-56
2023/05/16 10:23:33;;;;;;;21.67;9.60;;;15.40;1.00;;;;;;4970104;28;20855;-55
2023/05/16 10:26:02;;;;;;;21.17;9.55;;;15.10;99.90;;;;;;4970919;28;20602;-55
2023/05/16 10:28:28;;;;;;;19.85;9.20;;;15.10;1.00;;;;;;4969825;28;20407;-55
2023/05/16 10:30:55;;;;;;;20.50;8.77;;;15.00;99.90;;;;;;4971280;28;20491;-55
2023/05/16 10:33:20;;;;;;;22.45;9.20;;;14.90;99.90;;;;;;4970977;28;20444;-55
2023/05/16 10:35:46;;;;;;;20.13;9.10;;;14.90;1.00;;;;;;4969988;28;20775;-55
2023/05/16 10:38:17;;;;;;;21.83;8.43;;;14.70;1.00;;;;;;4970682;28;20464;-55
2023/05/16 10:40:43;;;;;;;19.58;7.88;;;14.70;99.90;;;;;;4970241;28;20384;-55
2023/05/16 10:43:09;;;;;;;18.20;8.40;;;14.30;1.00;;;;;;4970538;28;20398;-55
2023/05/16 10:45:40;;;;;;;18.25;8.63;;;14.30;1.00;;;;;;4969982;28;20401;-55
2023/05/16 10:48:08;;;;;;;22.10;7.80;;;14.30;1.00;;;;;;4971413;28;20530;-55
2023/05/16 10:50:45;;;;;;;18.70;7.85;;;14.20;1.00;;;;;;4974012;28;20388;-55
2023/05/16 10:53:20;;;;;;;19.00;7.82;;;14.10;99.90;;;;;;4974760;28;20423;-55
2023/05/16 10:55:57;;;;;;;18.10;7.93;;;14.20;1.00;;;;;;4973961;28;20427;-55
2023/05/16 10:58:45;;;;;;;14.95;5.97;;;14.40;1.00;;;;;;4974384;28;20419;-55
2023/05/16 11:01:39;;;;;;;14.43;6.15;;;14.30;1.00;;;;;;4974636;28;20956;-55
2023/05/16 11:04:07;;;;;;;12.83;5.90;;;14.10;1.00;;;;;;4955543;28;20979;-55
2023/05/16 11:06:41;;;;;;;13.20;5.82;;;14.00;1.00;;;;;;4973628;28;20395;-55
2023/05/16 11:09:22;;;;;;;11.43;4.90;;;13.90;1.00;;;;;;4974620;28;20387;-55
2023/05/16 11:11:50;;;;;;;10.37;4.20;;;13.80;14.60;;;;;;4973908;28;20445;-54
2023/05/16 11:14:31;;;;;;;10.65;4.50;;;13.70;99.90;;;;;;4973864;28;20885;-55
2023/05/16 11:17:14;;;;;;;10.90;3.90;;;13.90;99.90;;;;;;4973905;28;20439;-55
2023/05/16 11:19:48;;;;;;;9.67;3.70;;;13.70;52.60;;;;;;4973678;28;20487;-55
2023/05/16 11:22:20;;;;;;;8.65;3.50;;;13.80;1.00;;;;;;4973871;28;20779;-55
2023/05/16 11:25:04;;;;;;;10.20;3.60;;;13.80;99.90;;;;;;4973310;28;20430;-55
2023/05/16 11:27:35;;;;;;;10.38;3.63;;;13.90;1.00;;;;;;4973448;28;20408;-55
2023/05/16 11:30:03;;;;;;;10.35;3.88;;;14.10;1.00;;;;;;4973842;28;20416;-55
2023/05/16 11:32:30;;;;;;;8.70;3.40;;;14.30;99.90;;;;;;4972755;28;20503;-55
2023/05/16 11:34:57;;;;;;;11.25;4.10;;;14.40;1.00;;;;;;4973442;28;20773;-55
2023/05/16 11:37:23;;;;;;;12.18;3.95;;;14.30;1.00;;;;;;4973676;28;20392;-55
2023/05/16 11:39:48;;;;;;;8.97;3.93;;;14.20;99.90;;;;;;4973110;28;20396;-55
2023/05/16 11:42:14;;;;;;;13.27;3.70;;;14.10;99.90;;;;;;4973712;28;20391;-54
2023/05/16 11:44:40;;;;;;;9.98;4.38;;;14.00;1.00;;;;;;4972735;28;20396;-55
2023/05/16 11:47:06;;;;;;;9.37;3.80;;;14.00;99.90;;;;;;4973790;28;20482;-55
2023/05/16 11:49:34;;;;;;;8.48;3.35;;;14.00;99.90;;;;;;4973023;28;20377;-55
2023/05/16 11:52:01;;;;;;;8.23;3.20;;;14.10;1.00;;;;;;4964305;28;20418;-55
2023/05/16 11:54:27;;;;;;;9.40;3.90;;;14.00;1.00;;;;;;4972861;28;20897;-54
2023/05/16 11:56:53;;;;;;;10.43;3.60;;;14.00;1.00;;;;;;4971666;28;20420;-55
2023/05/16 11:59:19;;;;;;;8.18;3.20;;;14.20;1.00;;;;;;4971051;28;20435;-55
2023/05/16 12:01:48;;;;;;;8.00;3.33;;;14.60;99.90;;;;;;4967233;28;20417;-55
2023/05/16 12:04:15;;;;;;;8.65;3.40;;;14.90;1.00;;;;;;4964715;28;20434;-55
2023/05/16 12:06:43;;;;;;;8.03;3.20;;;14.90;1.00;;;;;;4968132;28;20504;-55
2023/05/16 12:09:14;;;;;;;10.40;3.50;;;14.50;1.00;;;;;;4959441;28;20443;-54
2023/05/16 12:11:41;;;;;;;12.40;3.70;;;14.50;1.00;;;;;;4967483;28;20474;-55
2023/05/16 12:14:09;;;;;;;8.25;3.20;;;14.60;1.00;;;;;;4969109;28;20416;-55
2023/05/16 12:16:38;;;;;;;8.40;3.07;;;14.80;1.00;;;;;;4969830;28;20408;-55
2023/05/16 12:19:07;;;;;;;7.10;2.92;;;14.80;99.90;;;;;;4960633;28;20492;-55
2023/05/16 12:21:34;;;;;;;6.82;2.40;;;14.80;99.90;;;;;;4966343;28;20392;-55
2023/05/16 12:24:00;;;;;;;7.88;2.65;;;14.80;99.90;;;;;;4971926;28;20439;-55
2023/05/16 12:26:30;;;;;;;7.13;2.30;;;14.60;99.90;;;;;;4969197;28;20881;-55
2023/05/16 12:29:02;;;;;;;7.80;2.90;;;14.40;99.90;;;;;;4974503;28;20881;-55
2023/05/16 12:31:29;;;;;;;7.30;2.90;;;14.50;1.00;;;;;;4972219;28;20540;-55
2023/05/16 12:33:55;;;;;;;7.47;3.05;;;14.20;1.00;;;;;;4953694;29;20400;-55
2023/05/16 12:36:23;;;;;;;6.65;2.65;;;14.00;99.90;;;;;;4962305;28;20411;-55
2023/05/16 12:38:49;;;;;;;7.57;3.10;;;14.10;95.90;;;;;;4972212;28;20497;-55